createdAt,value
2022-12-31T00:00:15.145Z,100101.59
2022-12-31T00:02:42.450Z,100097.19
2022-12-31T00:05:10.246Z,100100.63
2022-12-31T00:10:05.013Z,100098.78
2022-12-31T00:12:32.341Z,100097.69
2022-12-31T00:14:59.567Z,100109.59
2022-12-31T00:17:26.742Z,100112.81
2022-12-31T00:19:54.009Z,100103.09
2022-12-31T00:22:21.335Z,100113.38
2022-12-31T00:24:48.828Z,100120.22
2022-12-31T00:27:16.741Z,100114.88
2022-12-31T00:29:43.967Z,100128.19
2022-12-31T00:32:11.188Z,100123.81
2022-12-31T00:34:38.597Z,100130.03
2022-12-31T00:37:05.844Z,100138.88
2022-12-31T00:39:33.017Z,100136.19
2022-12-31T00:42:00.259Z,100140.53
2022-12-31T00:44:27.455Z,100126.31
2022-12-31T00:46:54.623Z,100126.78
2022-12-31T00:49:21.899Z,100118.00
2022-12-31T00:51:49.369Z,100125.81
2022-12-31T00:54:16.603Z,100123.97
2022-12-31T00:56:43.791Z,100137.00
2022-12-31T00:59:10.966Z,100150.19
2022-12-31T01:01:39.890Z,100148.31
2022-12-31T01:04:16.612Z,100164.03
2022-12-31T01:06:44.390Z,100163.09
2022-12-31T01:09:12.841Z,100171.50
2022-12-31T01:11:40.071Z,100164.31
2022-12-31T01:14:08.823Z,100153.56
2022-12-31T01:16:42.383Z,100154.06
2022-12-31T01:19:12.564Z,100154.38
2022-12-31T01:21:40.819Z,100146.16
2022-12-31T01:24:08.953Z,100142.66
2022-12-31T01:26:36.389Z,100164.25
2022-12-31T01:29:04.381Z,100172.91
2022-12-31T01:31:33.019Z,100176.47
2022-12-31T01:34:00.660Z,100183.25
2022-12-31T01:36:29.556Z,100181.22
2022-12-31T01:38:58.182Z,100184.56
2022-12-31T01:41:28.127Z,100191.63
2022-12-31T01:43:58.514Z,100195.75
2022-12-31T01:46:44.576Z,100199.13
2022-12-31T01:49:21.808Z,100185.41
2022-12-31T01:51:52.623Z,100189.50
2022-12-31T01:54:22.180Z,100192.78
2022-12-31T01:56:50.156Z,100197.25
2022-12-31T01:59:18.645Z,100192.53
2022-12-31T02:01:48.225Z,100193.25
2022-12-31T02:04:16.217Z,100187.91
2022-12-31T02:06:58.978Z,100202.09
2022-12-31T02:09:26.456Z,100191.47
2022-12-31T02:11:53.643Z,100196.59
2022-12-31T02:14:31.691Z,100202.78
2022-12-31T02:17:17.109Z,100197.59
2022-12-31T02:20:10.899Z,100189.44
2022-12-31T02:23:19.465Z,100191.13
2022-12-31T02:26:03.449Z,100200.94
2022-12-31T02:29:04.435Z,100195.41
2022-12-31T02:31:47.398Z,100197.28
2022-12-31T02:34:20.869Z,100198.13
2022-12-31T02:36:49.192Z,100198.13
2022-12-31T02:39:16.594Z,100185.88
2022-12-31T02:41:54.818Z,100203.13
2022-12-31T02:44:28.274Z,100198.56
2022-12-31T02:47:19.123Z,100200.13
2022-12-31T02:49:59.885Z,100198.16
2022-12-31T02:52:53.379Z,100189.91
2022-12-31T02:55:38.036Z,100193.22
2022-12-31T02:58:22.857Z,100186.09
2022-12-31T03:01:12.275Z,100193.03
2022-12-31T03:03:40.311Z,100189.53
2022-12-31T03:06:08.943Z,100191.81
2022-12-31T03:08:56.139Z,100208.63
2022-12-31T03:11:42.294Z,100193.03
2022-12-31T03:14:09.498Z,100193.72
2022-12-31T03:16:36.763Z,100186.75
2022-12-31T03:19:22.691Z,100190.97
2022-12-31T03:22:08.339Z,100189.25
2022-12-31T03:24:54.033Z,100189.13
2022-12-31T03:27:21.276Z,100196.75
2022-12-31T03:29:48.465Z,100194.03
2022-12-31T03:32:15.629Z,100189.69
2022-12-31T03:34:42.880Z,100181.38
2022-12-31T03:37:10.054Z,100186.22
2022-12-31T03:39:37.210Z,100180.81
2022-12-31T03:42:04.616Z,100180.94
2022-12-31T03:44:31.825Z,100187.91
2022-12-31T03:46:59.121Z,100165.63
2022-12-31T03:49:26.304Z,100166.88
2022-12-31T03:51:53.467Z,100145.81
2022-12-31T03:54:20.750Z,100132.59
2022-12-31T03:56:49.540Z,100151.59
2022-12-31T03:59:16.832Z,100157.81
2022-12-31T04:01:44.128Z,100155.16
2022-12-31T04:04:11.414Z,100154.31
2022-12-31T04:06:38.796Z,100148.13
2022-12-31T04:09:05.972Z,100152.09
2022-12-31T04:11:33.205Z,100160.63
2022-12-31T04:14:00.400Z,100151.16
2022-12-31T04:16:27.647Z,100158.94
2022-12-31T04:18:54.875Z,100165.00
2022-12-31T04:21:22.037Z,100163.13
2022-12-31T04:23:49.218Z,100165.00
2022-12-31T04:26:16.379Z,100169.94
2022-12-31T04:28:43.552Z,100162.91
2022-12-31T04:31:11.243Z,100164.63
2022-12-31T04:33:38.423Z,100162.84
2022-12-31T04:36:07.514Z,100148.66
2022-12-31T04:38:34.887Z,100161.91
2022-12-31T04:41:17.410Z,100145.22
2022-12-31T04:43:49.667Z,100132.19
2022-12-31T04:46:18.183Z,100125.31
2022-12-31T04:48:45.356Z,100115.78
2022-12-31T04:51:13.191Z,100116.53
2022-12-31T04:53:40.479Z,100122.84
2022-12-31T04:56:08.347Z,100120.91
2022-12-31T04:58:36.273Z,100109.50
2022-12-31T05:01:03.604Z,100114.69
2022-12-31T05:03:31.137Z,100112.75
2022-12-31T05:06:11.073Z,100106.50
2022-12-31T05:08:38.250Z,100123.00
2022-12-31T05:11:05.438Z,100120.22
2022-12-31T05:13:33.583Z,100133.25
2022-12-31T05:16:01.600Z,100139.38
2022-12-31T05:18:29.223Z,100133.31
2022-12-31T05:20:56.433Z,100137.81
2022-12-31T05:23:23.658Z,100128.28
2022-12-31T05:25:51.279Z,100124.66
2022-12-31T05:28:18.682Z,100106.25
2022-12-31T05:30:48.987Z,100104.72
2022-12-31T05:33:16.508Z,100098.66
2022-12-31T05:35:43.698Z,100092.53
2022-12-31T05:38:10.878Z,100088.19
2022-12-31T05:40:38.029Z,100081.72
2022-12-31T05:43:05.435Z,100076.59
2022-12-31T05:45:32.579Z,100080.19
2022-12-31T05:47:59.802Z,100074.91
2022-12-31T05:50:27.019Z,100066.06
2022-12-31T05:52:54.192Z,100072.91
2022-12-31T05:55:21.382Z,100069.19
2022-12-31T05:57:48.667Z,100058.66
2022-12-31T06:00:16.220Z,100061.19
2022-12-31T06:02:43.557Z,100044.63
2022-12-31T06:05:10.760Z,100042.84
2022-12-31T06:07:37.914Z,100053.28
2022-12-31T06:10:05.836Z,100055.78
2022-12-31T06:12:33.103Z,100049.44
2022-12-31T06:15:00.497Z,100047.41
2022-12-31T06:17:28.029Z,100040.91
2022-12-31T06:19:55.239Z,100060.63
2022-12-31T06:22:22.426Z,100059.59
2022-12-31T06:24:49.602Z,100061.38
2022-12-31T06:27:16.749Z,100044.03
2022-12-31T06:29:45.645Z,100042.34
2022-12-31T06:32:12.815Z,100061.31
2022-12-31T06:34:40.005Z,100075.66
2022-12-31T06:37:07.201Z,100062.84
2022-12-31T06:39:34.372Z,100058.75
2022-12-31T06:42:01.570Z,100044.69
2022-12-31T06:44:28.758Z,100062.63
2022-12-31T06:46:55.976Z,100059.53
2022-12-31T06:49:23.198Z,100055.00
2022-12-31T06:51:50.349Z,100042.44
2022-12-31T06:54:17.722Z,100040.66
2022-12-31T06:56:45.092Z,100048.31
2022-12-31T06:59:26.218Z,100044.28
2022-12-31T07:02:21.660Z,100042.22
2022-12-31T07:05:28.629Z,100020.78
2022-12-31T07:08:31.293Z,100038.00
2022-12-31T07:11:09.567Z,100041.00
2022-12-31T07:14:03.687Z,100038.22
2022-12-31T07:16:47.204Z,100038.22
2022-12-31T07:19:23.266Z,100028.25
2022-12-31T07:21:52.008Z,100030.41
2022-12-31T07:24:19.429Z,100036.09
2022-12-31T07:27:08.448Z,100024.84
2022-12-31T07:29:53.639Z,100026.81
2022-12-31T07:32:57.571Z,100032.09
2022-12-31T07:35:45.095Z,100038.16
2022-12-31T07:38:44.496Z,100041.66
2022-12-31T07:41:16.967Z,100035.84
2022-12-31T07:44:08.323Z,100045.03
2022-12-31T07:46:55.792Z,100056.13
2022-12-31T07:49:24.679Z,100046.06
2022-12-31T07:51:52.381Z,100045.91
2022-12-31T07:54:19.865Z,100044.66
2022-12-31T07:56:47.605Z,100054.88
2022-12-31T07:59:58.742Z,100063.09
2022-12-31T08:02:56.795Z,100067.38
2022-12-31T08:05:31.887Z,100065.78
2022-12-31T08:08:09.366Z,100072.41
2022-12-31T08:11:01.714Z,100082.81
2022-12-31T08:13:29.192Z,100080.59
2022-12-31T08:15:56.545Z,100076.16
2022-12-31T08:18:23.869Z,100063.88
2022-12-31T08:21:02.740Z,100079.56
2022-12-31T08:23:41.444Z,100076.25
2022-12-31T08:26:30.382Z,100083.91
2022-12-31T08:29:04.845Z,100067.69
2022-12-31T08:31:53.824Z,100063.00
2022-12-31T08:34:46.419Z,100062.88
2022-12-31T08:37:19.220Z,100073.22
2022-12-31T08:40:10.458Z,100071.81
2022-12-31T08:43:13.947Z,100074.09
2022-12-31T08:45:49.982Z,100080.84
2022-12-31T08:48:37.879Z,100084.81
2022-12-31T08:51:05.674Z,100082.63
2022-12-31T08:53:33.089Z,100093.63
2022-12-31T08:56:13.022Z,100097.50
2022-12-31T08:58:44.927Z,100094.78
2022-12-31T09:01:13.483Z,100094.47
2022-12-31T09:04:06.065Z,100103.78
2022-12-31T09:06:41.935Z,100106.88
2022-12-31T09:09:38.236Z,100106.97
2022-12-31T09:12:17.006Z,100107.16
2022-12-31T09:14:57.330Z,100109.63
2022-12-31T09:17:48.900Z,100096.38
2022-12-31T09:20:41.894Z,100110.75
2022-12-31T09:23:12.360Z,100119.44
2022-12-31T09:26:06.256Z,100109.81
2022-12-31T09:28:54.427Z,100103.03
2022-12-31T09:31:44.111Z,100090.81
2022-12-31T09:34:28.130Z,100100.41
2022-12-31T09:37:17.863Z,100101.06
2022-12-31T09:39:47.216Z,100101.41
2022-12-31T09:42:52.174Z,100106.50
2022-12-31T09:45:34.007Z,100107.38
2022-12-31T09:48:16.933Z,100092.44
2022-12-31T09:51:10.637Z,100094.69
2022-12-31T09:53:53.330Z,100085.28
2022-12-31T09:56:32.905Z,100072.34
2022-12-31T09:59:42.352Z,100095.81
2022-12-31T10:02:41.469Z,100083.72
2022-12-31T10:05:33.360Z,100085.66
2022-12-31T10:08:15.571Z,100067.84
2022-12-31T10:10:52.778Z,100081.31
2022-12-31T10:13:50.889Z,100084.22
2022-12-31T10:17:00.421Z,100071.13
2022-12-31T10:20:13.277Z,100099.63
2022-12-31T10:23:03.958Z,100101.47
2022-12-31T10:25:55.716Z,100106.06
2022-12-31T10:28:56.089Z,100121.44
2022-12-31T10:31:40.543Z,100119.44
2022-12-31T10:34:34.688Z,100113.34
2022-12-31T10:37:17.349Z,100119.84
2022-12-31T10:40:00.529Z,100131.44
2022-12-31T10:42:36.287Z,100146.41
2022-12-31T10:45:29.721Z,100160.34
2022-12-31T10:48:29.684Z,100145.78
2022-12-31T10:51:21.404Z,100142.66
2022-12-31T10:54:09.824Z,100153.88
2022-12-31T10:56:46.169Z,100156.31
2022-12-31T10:59:34.632Z,100155.22
2022-12-31T11:02:21.875Z,100152.38
2022-12-31T11:05:03.979Z,100160.34
2022-12-31T11:07:43.392Z,100155.44
2022-12-31T11:10:59.167Z,100168.72
2022-12-31T11:13:36.009Z,100170.25
2022-12-31T11:16:24.211Z,100174.38
2022-12-31T11:19:16.785Z,100176.81
2022-12-31T11:22:13.459Z,100168.84
2022-12-31T11:25:03.910Z,100176.09
2022-12-31T11:27:53.256Z,100168.88
2022-12-31T11:30:33.631Z,100167.38
2022-12-31T11:33:20.278Z,100168.44
2022-12-31T11:36:15.709Z,100161.81
2022-12-31T11:38:52.128Z,100170.03
2022-12-31T11:41:54.641Z,100164.47
2022-12-31T11:44:40.612Z,100171.19
2022-12-31T11:47:49.676Z,100149.19
2022-12-31T11:50:28.106Z,100174.38
2022-12-31T11:53:11.520Z,100156.63
2022-12-31T11:55:53.272Z,100164.47
2022-12-31T11:58:22.044Z,100154.28
2022-12-31T12:01:04.684Z,100161.16
2022-12-31T12:03:32.540Z,100151.16
2022-12-31T12:06:00.123Z,100140.72
2022-12-31T12:08:31.135Z,100136.38
2022-12-31T12:11:05.853Z,100141.38
2022-12-31T12:13:33.745Z,100144.75
2022-12-31T12:16:05.627Z,100147.00
2022-12-31T12:18:45.879Z,100137.56
2022-12-31T12:21:19.446Z,100152.56
2022-12-31T12:23:58.834Z,100155.34
2022-12-31T12:26:28.562Z,100156.94
2022-12-31T12:28:55.779Z,100145.97
2022-12-31T12:31:26.846Z,100136.59
2022-12-31T12:33:54.088Z,100155.84
2022-12-31T12:36:21.986Z,100155.44
2022-12-31T12:39:04.413Z,100148.22
2022-12-31T12:41:31.823Z,100161.41
2022-12-31T12:44:17.374Z,100160.75
2022-12-31T12:46:48.618Z,100155.44
2022-12-31T12:49:28.370Z,100159.91
2022-12-31T12:52:13.400Z,100163.63
2022-12-31T12:54:59.840Z,100161.41
2022-12-31T12:57:59.868Z,100154.81
2022-12-31T13:01:29.558Z,100148.88
2022-12-31T13:04:35.196Z,100156.50
2022-12-31T13:07:07.776Z,100161.59
2022-12-31T13:10:02.257Z,100165.22
2022-12-31T13:13:22.891Z,100160.44
2022-12-31T13:15:42.596Z,100164.59
2022-12-31T13:18:27.643Z,100167.06
2022-12-31T13:20:56.604Z,100169.50
2022-12-31T13:23:46.228Z,100172.34
2022-12-31T13:26:31.764Z,100185.53
2022-12-31T13:28:59.366Z,100180.13
2022-12-31T13:31:36.421Z,100165.88
2022-12-31T13:34:09.021Z,100170.97
2022-12-31T13:36:39.774Z,100174.25
2022-12-31T13:39:14.356Z,100171.16
2022-12-31T13:41:50.786Z,100181.81
2022-12-31T13:44:39.892Z,100188.38
2022-12-31T13:47:09.959Z,100201.91
2022-12-31T13:49:45.568Z,100206.91
2022-12-31T13:52:33.754Z,100213.63
2022-12-31T13:55:29.160Z,100218.38
2022-12-31T13:58:38.378Z,100224.78
2022-12-31T14:01:22.100Z,100223.31
2022-12-31T14:04:14.011Z,100241.16
2022-12-31T14:06:49.323Z,100252.88
2022-12-31T14:09:37.723Z,100242.75
2022-12-31T14:12:28.954Z,100265.19
2022-12-31T14:14:59.005Z,100284.09
2022-12-31T14:17:42.903Z,100270.81
2022-12-31T14:20:29.225Z,100269.09
2022-12-31T14:23:37.840Z,100276.34
2022-12-31T14:26:15.966Z,100277.78
2022-12-31T14:28:49.785Z,100288.75
2022-12-31T14:31:37.767Z,100290.88
2022-12-31T14:34:42.798Z,100290.44
2022-12-31T14:37:22.288Z,100300.88
2022-12-31T14:39:58.201Z,100292.25
2022-12-31T14:43:01.672Z,100301.78
2022-12-31T14:45:45.858Z,100308.34
2022-12-31T14:48:46.846Z,100315.56
2022-12-31T14:51:14.405Z,100324.47
2022-12-31T14:53:53.034Z,100321.47
2022-12-31T14:56:32.475Z,100325.38
2022-12-31T14:59:01.383Z,100323.69
2022-12-31T15:01:29.479Z,100329.94
2022-12-31T15:03:58.083Z,100326.72
2022-12-31T15:06:44.481Z,100321.13
2022-12-31T15:09:43.315Z,100320.44
2022-12-31T15:12:29.116Z,100322.63
2022-12-31T15:15:18.192Z,100321.59
2022-12-31T15:18:05.752Z,100315.53
2022-12-31T15:20:46.040Z,100330.25
2022-12-31T15:23:22.833Z,100327.59
2022-12-31T15:25:57.126Z,100329.00
2022-12-31T15:28:36.818Z,100333.75
2022-12-31T15:31:17.721Z,100325.19
2022-12-31T15:33:58.243Z,100338.97
2022-12-31T15:36:35.511Z,100336.88
2022-12-31T15:39:20.486Z,100345.38
2022-12-31T15:42:35.675Z,100341.03
2022-12-31T15:44:59.914Z,100327.31
2022-12-31T15:47:41.636Z,100329.00
2022-12-31T15:50:15.543Z,100329.41
2022-12-31T15:52:52.499Z,100337.88
2022-12-31T15:55:44.715Z,100327.81
2022-12-31T15:58:17.076Z,100336.94
2022-12-31T16:00:55.761Z,100337.69
2022-12-31T16:03:28.175Z,100346.50
2022-12-31T16:06:01.665Z,100355.03
2022-12-31T16:08:38.380Z,100354.00
2022-12-31T16:11:08.136Z,100347.97
2022-12-31T16:13:39.487Z,100346.56
2022-12-31T16:16:16.527Z,100348.94
2022-12-31T16:18:44.440Z,100342.34
2022-12-31T16:21:32.488Z,100364.50
2022-12-31T16:24:05.530Z,100367.41
2022-12-31T16:26:50.023Z,100364.50
2022-12-31T16:29:19.097Z,100361.06
2022-12-31T16:31:47.335Z,100370.28
2022-12-31T16:34:17.259Z,100367.63
2022-12-31T16:36:58.824Z,100370.94
2022-12-31T16:39:32.196Z,100372.78
2022-12-31T16:42:13.092Z,100380.03
2022-12-31T16:44:40.945Z,100394.66
2022-12-31T16:47:10.075Z,100385.72
2022-12-31T16:49:38.096Z,100383.19
2022-12-31T16:52:17.937Z,100380.03
2022-12-31T16:54:47.208Z,100368.34
2022-12-31T16:57:25.834Z,100366.94
2022-12-31T16:59:56.046Z,100376.50
2022-12-31T17:02:34.045Z,100383.06
2022-12-31T17:05:02.134Z,100377.03
2022-12-31T17:07:37.650Z,100371.38
2022-12-31T17:10:07.576Z,100373.28
2022-12-31T17:13:17.541Z,100373.19
2022-12-31T17:15:40.021Z,100387.44
2022-12-31T17:18:07.926Z,100377.06
2022-12-31T17:20:35.521Z,100397.97
2022-12-31T17:23:09.795Z,100394.25
2022-12-31T17:25:37.988Z,100393.84
2022-12-31T17:28:25.195Z,100383.22
2022-12-31T17:30:52.843Z,100385.88
2022-12-31T17:33:22.778Z,100395.50
2022-12-31T17:36:13.686Z,100392.25
2022-12-31T17:38:44.027Z,100405.81
2022-12-31T17:41:26.550Z,100412.66
2022-12-31T17:43:58.011Z,100412.66
2022-12-31T17:46:25.838Z,100407.84
2022-12-31T17:49:01.848Z,100415.16
2022-12-31T17:51:29.047Z,100402.06
2022-12-31T17:53:56.270Z,100388.66
2022-12-31T17:56:23.479Z,100399.41
2022-12-31T17:58:54.276Z,100399.59
2022-12-31T18:01:23.540Z,100400.84
2022-12-31T18:03:50.914Z,100405.28
2022-12-31T18:06:19.484Z,100414.94
2022-12-31T18:08:47.124Z,100414.59
2022-12-31T18:11:20.481Z,100412.78
2022-12-31T18:13:48.098Z,100420.09
2022-12-31T18:16:15.439Z,100420.66
2022-12-31T18:18:45.395Z,100404.72
2022-12-31T18:21:25.432Z,100414.50
2022-12-31T18:26:22.279Z,100418.47
2022-12-31T18:28:50.165Z,100426.34
2022-12-31T18:31:20.198Z,100413.75
2022-12-31T18:33:48.190Z,100423.22
2022-12-31T18:36:17.011Z,100419.53
2022-12-31T18:38:44.443Z,100416.88
2022-12-31T18:41:27.716Z,100426.72
2022-12-31T18:43:55.865Z,100423.59
2022-12-31T18:46:24.352Z,100431.19
2022-12-31T18:48:51.825Z,100428.72
2022-12-31T18:51:23.982Z,100435.53
2022-12-31T18:53:53.814Z,100436.38
2022-12-31T18:56:22.142Z,100439.22
2022-12-31T18:58:49.479Z,100431.25
2022-12-31T19:01:29.650Z,100438.56
2022-12-31T19:04:02.097Z,100437.91
2022-12-31T19:06:30.590Z,100430.97
2022-12-31T19:09:00.883Z,100433.16
2022-12-31T19:11:28.549Z,100436.09
2022-12-31T19:13:55.982Z,100441.09
2022-12-31T19:16:23.316Z,100446.41
2022-12-31T19:18:50.903Z,100446.28
2022-12-31T19:21:22.350Z,100442.72
2022-12-31T19:23:52.349Z,100437.59
2022-12-31T19:26:21.707Z,100436.03
2022-12-31T19:28:50.983Z,100443.25
2022-12-31T19:31:18.318Z,100436.69
2022-12-31T19:33:45.861Z,100432.53
2022-12-31T19:36:17.679Z,100431.91
2022-12-31T19:38:45.588Z,100430.06
2022-12-31T19:41:20.007Z,100422.88
2022-12-31T19:43:47.978Z,100424.91
2022-12-31T19:46:16.733Z,100423.44
2022-12-31T19:48:44.468Z,100422.72
2022-12-31T19:51:15.721Z,100405.19
2022-12-31T19:53:43.407Z,100415.50
2022-12-31T19:56:15.845Z,100409.78
2022-12-31T19:58:43.436Z,100412.34
2022-12-31T20:01:19.691Z,100422.13
2022-12-31T20:03:47.224Z,100426.50
2022-12-31T20:06:14.720Z,100429.72
2022-12-31T20:08:43.371Z,100442.06
2022-12-31T20:11:18.901Z,100437.13
2022-12-31T20:13:47.570Z,100436.94
2022-12-31T20:16:17.131Z,100437.72
2022-12-31T20:18:45.942Z,100430.88
2022-12-31T20:21:24.595Z,100434.09
2022-12-31T20:23:53.263Z,100438.94
2022-12-31T20:26:22.404Z,100424.88
2022-12-31T20:28:50.743Z,100430.31
2022-12-31T20:31:21.236Z,100421.88
2022-12-31T20:33:49.809Z,100428.78
2022-12-31T20:36:17.708Z,100436.97
2022-12-31T20:38:45.593Z,100444.09
2022-12-31T20:41:15.535Z,100440.41
2022-12-31T20:43:43.756Z,100440.59
2022-12-31T20:46:19.749Z,100431.25
2022-12-31T20:48:48.235Z,100415.44
2022-12-31T20:51:16.276Z,100412.31
2022-12-31T20:53:55.883Z,100417.25
2022-12-31T20:56:23.716Z,100427.22
2022-12-31T20:58:51.317Z,100431.38
2022-12-31T21:01:19.952Z,100432.81
2022-12-31T21:04:05.786Z,100418.56
2022-12-31T21:06:36.482Z,100423.59
2022-12-31T21:09:05.784Z,100430.88
2022-12-31T21:11:51.660Z,100426.34
2022-12-31T21:14:19.125Z,100426.16
2022-12-31T21:16:46.489Z,100432.22
2022-12-31T21:19:13.819Z,100433.00
2022-12-31T21:21:41.006Z,100426.91
2022-12-31T21:24:08.480Z,100433.38
2022-12-31T21:26:35.801Z,100441.41
2022-12-31T21:29:03.181Z,100440.19
2022-12-31T21:31:31.787Z,100431.09
2022-12-31T21:33:59.097Z,100449.28
2022-12-31T21:36:27.541Z,100447.59
2022-12-31T21:38:54.804Z,100451.16
2022-12-31T21:41:40.540Z,100451.28
2022-12-31T21:44:08.097Z,100450.69
2022-12-31T21:46:35.384Z,100457.03
2022-12-31T21:49:02.663Z,100468.53
2022-12-31T21:51:30.077Z,100460.81
2022-12-31T21:53:57.701Z,100473.50
2022-12-31T21:56:25.312Z,100461.38
2022-12-31T21:59:13.685Z,100468.47
2022-12-31T22:01:59.557Z,100474.56
2022-12-31T22:07:14.519Z,100470.09
2022-12-31T22:09:41.821Z,100463.28
2022-12-31T22:12:09.040Z,100470.91
2022-12-31T22:14:36.261Z,100466.84
2022-12-31T22:17:03.581Z,100480.47
2022-12-31T22:19:30.811Z,100473.56
2022-12-31T22:21:58.269Z,100465.22
2022-12-31T22:24:26.497Z,100474.06
2022-12-31T22:26:55.605Z,100472.34
2022-12-31T22:29:23.622Z,100476.91
2022-12-31T22:31:55.533Z,100486.50
2022-12-31T22:34:26.603Z,100476.91
2022-12-31T22:36:53.820Z,100498.44
2022-12-31T22:39:43.401Z,100503.81
2022-12-31T22:42:08.523Z,100514.03
2022-12-31T22:44:35.757Z,100508.22
2022-12-31T22:47:03.004Z,100510.00
2022-12-31T22:49:30.296Z,100500.44
2022-12-31T22:52:01.756Z,100502.78
2022-12-31T22:54:31.815Z,100503.81
2022-12-31T22:56:59.005Z,100500.00
2022-12-31T22:59:26.268Z,100506.69
2022-12-31T23:01:53.682Z,100507.53
2022-12-31T23:04:21.047Z,100507.63
2022-12-31T23:06:48.287Z,100513.53
2022-12-31T23:09:35.529Z,100512.66
2022-12-31T23:12:04.267Z,100510.88
2022-12-31T23:14:50.067Z,100523.88
2022-12-31T23:17:41.431Z,100527.88
2022-12-31T23:20:32.763Z,100509.81
2022-12-31T23:23:05.719Z,100519.75
2022-12-31T23:25:43.209Z,100522.41
2022-12-31T23:28:20.379Z,100519.41
2022-12-31T23:30:47.636Z,100519.84
2022-12-31T23:33:17.470Z,100522.00
2022-12-31T23:35:45.206Z,100522.75
2022-12-31T23:38:12.784Z,100504.38
2022-12-31T23:40:41.271Z,100528.16
2022-12-31T23:43:09.726Z,100506.78
2022-12-31T23:45:37.525Z,100526.19
2022-12-31T23:48:04.849Z,100530.53
2022-12-31T23:50:34.998Z,100529.28
2022-12-31T23:53:02.631Z,100532.44
2022-12-31T23:55:29.827Z,100539.03
2022-12-31T23:57:56.989Z,100548.91
